createdAt,value
2023-07-08T00:01:16.334Z,16.90
2023-07-08T00:03:44.186Z,16.80
2023-07-08T00:06:22.527Z,16.70
2023-07-08T00:08:50.723Z,16.70
2023-07-08T00:11:18.930Z,16.70
2023-07-08T00:13:46.897Z,16.70
2023-07-08T00:16:17.581Z,16.70
2023-07-08T00:18:45.805Z,16.70
2023-07-08T00:21:16.752Z,16.60
2023-07-08T00:23:46.846Z,16.30
2023-07-08T00:26:26.382Z,16.30
2023-07-08T00:28:54.745Z,16.30
2023-07-08T00:31:25.639Z,16.40
2023-07-08T00:33:58.426Z,16.40
2023-07-08T00:36:28.436Z,16.30
2023-07-08T00:38:56.842Z,16.40
2023-07-08T00:41:39.582Z,16.30
2023-07-08T00:44:09.916Z,16.30
2023-07-08T00:47:05.598Z,16.20
2023-07-08T00:49:39.505Z,16.40
2023-07-08T00:52:26.366Z,16.30
2023-07-08T00:55:01.960Z,16.20
2023-07-08T00:57:36.137Z,16.20
2023-07-08T01:00:13.300Z,16.10
2023-07-08T01:02:56.176Z,15.90
2023-07-08T01:05:28.337Z,15.90
2023-07-08T01:08:01.414Z,15.80
2023-07-08T01:10:34.905Z,16.00
2023-07-08T01:13:08.676Z,16.10
2023-07-08T01:15:46.327Z,16.20
2023-07-08T01:18:17.694Z,16.20
2023-07-08T01:20:48.635Z,16.10
2023-07-08T01:23:16.476Z,16.10
2023-07-08T01:25:45.469Z,16.00
2023-07-08T01:28:14.059Z,15.90
2023-07-08T01:30:43.815Z,15.80
2023-07-08T01:33:23.167Z,15.80
2023-07-08T01:35:51.151Z,15.80
2023-07-08T01:38:25.102Z,15.80
2023-07-08T01:40:55.625Z,15.70
2023-07-08T01:43:23.518Z,15.70
2023-07-08T01:45:53.183Z,15.70
2023-07-08T01:48:24.380Z,15.70
2023-07-08T01:51:04.971Z,15.70
2023-07-08T01:53:36.356Z,15.60
2023-07-08T01:56:06.036Z,15.50
2023-07-08T01:58:35.040Z,15.50
2023-07-08T02:01:03.602Z,15.60
2023-07-08T02:03:31.499Z,15.50
2023-07-08T02:05:59.459Z,15.50
2023-07-08T02:08:27.734Z,15.40
2023-07-08T02:11:00.029Z,15.40
2023-07-08T02:13:28.210Z,15.40
2023-07-08T02:15:55.880Z,15.40
2023-07-08T02:18:24.819Z,15.30
2023-07-08T02:20:52.501Z,15.20
2023-07-08T02:23:21.004Z,15.20
2023-07-08T02:25:52.980Z,15.30
2023-07-08T02:28:21.391Z,15.30
2023-07-08T02:30:49.037Z,15.50
2023-07-08T02:33:18.793Z,15.50
2023-07-08T02:35:46.992Z,15.50
2023-07-08T02:38:14.663Z,15.50
2023-07-08T02:40:43.641Z,15.40
2023-07-08T02:43:11.402Z,15.30
2023-07-08T02:45:39.788Z,15.20
2023-07-08T02:48:07.526Z,15.20
2023-07-08T02:50:35.152Z,15.30
2023-07-08T02:53:03.007Z,15.30
2023-07-08T02:55:30.667Z,15.20
2023-07-08T02:57:58.351Z,15.10
2023-07-08T03:00:25.934Z,15.20
2023-07-08T03:02:53.653Z,15.20
2023-07-08T03:05:21.340Z,15.10
2023-07-08T03:07:48.976Z,15.10
2023-07-08T03:10:16.761Z,15.10
2023-07-08T03:12:44.900Z,15.10
2023-07-08T03:15:13.351Z,15.20
2023-07-08T03:17:42.197Z,15.20
2023-07-08T03:20:11.505Z,15.20
2023-07-08T03:22:39.218Z,15.20
2023-07-08T03:25:08.126Z,15.10
2023-07-08T03:27:37.464Z,15.10
2023-07-08T03:30:06.512Z,15.10
2023-07-08T03:32:35.960Z,15.20
2023-07-08T03:35:03.782Z,15.20
2023-07-08T03:37:31.370Z,15.50
2023-07-08T03:39:59.265Z,15.60
2023-07-08T03:42:26.923Z,15.70
2023-07-08T03:44:54.552Z,15.90
2023-07-08T03:47:25.000Z,15.90
2023-07-08T03:49:53.578Z,16.00
2023-07-08T03:52:22.339Z,16.10
2023-07-08T03:54:50.045Z,16.20
2023-07-08T03:57:19.332Z,16.40
2023-07-08T03:59:48.783Z,16.50
2023-07-08T04:02:16.464Z,16.70
2023-07-08T04:04:45.382Z,16.90
2023-07-08T04:07:13.701Z,17.10
2023-07-08T04:09:41.385Z,17.20
2023-07-08T04:12:09.972Z,17.30
2023-07-08T04:14:37.706Z,17.20
2023-07-08T04:17:05.420Z,17.20
2023-07-08T04:19:33.111Z,17.20
2023-07-08T04:22:03.016Z,17.30
2023-07-08T04:24:30.683Z,17.40
2023-07-08T04:26:59.202Z,17.50
2023-07-08T04:29:26.805Z,17.60
2023-07-08T04:31:54.585Z,17.60
2023-07-08T04:34:22.251Z,17.70
2023-07-08T04:36:49.855Z,17.70
2023-07-08T04:39:17.809Z,17.60
2023-07-08T04:41:45.859Z,17.70
2023-07-08T04:44:14.725Z,17.70
2023-07-08T04:46:47.342Z,17.80
2023-07-08T04:49:15.275Z,18.20
2023-07-08T04:51:43.452Z,18.40
2023-07-08T04:54:11.742Z,18.30
2023-07-08T04:56:50.363Z,18.50
2023-07-08T04:59:21.789Z,19.10
2023-07-08T05:01:50.466Z,19.40
2023-07-08T05:04:20.437Z,19.50
2023-07-08T05:06:49.206Z,19.40
2023-07-08T05:09:17.757Z,19.20
2023-07-08T05:11:45.626Z,19.20
2023-07-08T05:14:14.524Z,19.40
2023-07-08T05:16:42.402Z,19.90
2023-07-08T05:19:11.221Z,20.10
2023-07-08T05:21:39.508Z,20.40
2023-07-08T05:24:07.909Z,20.50
2023-07-08T05:26:35.908Z,20.70
2023-07-08T05:29:03.636Z,20.60
2023-07-08T05:31:46.532Z,20.60
2023-07-08T05:34:16.232Z,20.80
2023-07-08T05:36:44.280Z,21.10
2023-07-08T05:39:11.890Z,20.90
2023-07-08T05:41:39.603Z,21.00
2023-07-08T05:44:07.232Z,20.80
2023-07-08T05:46:34.896Z,20.80
2023-07-08T05:49:02.536Z,20.90
2023-07-08T05:51:30.290Z,21.00
2023-07-08T05:53:58.390Z,21.10
2023-07-08T05:56:25.977Z,21.00
2023-07-08T05:58:53.659Z,21.40
2023-07-08T06:01:21.334Z,21.30
2023-07-08T06:03:49.547Z,21.30
2023-07-08T06:06:17.238Z,21.70
2023-07-08T06:08:44.958Z,22.00
2023-07-08T06:11:12.614Z,22.50
2023-07-08T06:13:40.220Z,22.80
2023-07-08T06:16:07.926Z,22.80
2023-07-08T06:18:35.721Z,22.70
2023-07-08T06:21:03.987Z,23.10
2023-07-08T06:23:31.768Z,23.10
2023-07-08T06:25:59.444Z,23.20
2023-07-08T06:28:27.089Z,23.00
2023-07-08T06:30:54.680Z,23.00
2023-07-08T06:33:22.242Z,22.60
2023-07-08T06:35:49.821Z,22.80
2023-07-08T06:38:17.521Z,23.10
2023-07-08T06:40:45.217Z,23.10
2023-07-08T06:43:12.989Z,23.30
2023-07-08T06:45:48.993Z,23.30
2023-07-08T06:48:16.653Z,23.20
2023-07-08T06:50:48.276Z,23.60
2023-07-08T06:53:16.871Z,23.30
2023-07-08T06:55:47.884Z,23.10
2023-07-08T06:58:15.547Z,23.70
2023-07-08T07:00:44.839Z,24.20
2023-07-08T07:03:13.209Z,24.40
2023-07-08T07:05:41.196Z,24.40
2023-07-08T07:08:09.192Z,23.80
2023-07-08T07:10:37.645Z,24.00
2023-07-08T07:13:05.513Z,24.20
2023-07-08T07:15:33.541Z,24.00
2023-07-08T07:18:01.602Z,24.10
2023-07-08T07:20:30.275Z,24.30
2023-07-08T07:22:58.392Z,24.20
2023-07-08T07:25:26.124Z,24.80
2023-07-08T07:27:53.816Z,24.40
2023-07-08T07:30:21.945Z,25.00
2023-07-08T07:32:49.545Z,25.10
2023-07-08T07:35:17.725Z,24.90
2023-07-08T07:37:45.456Z,24.90
2023-07-08T07:40:16.456Z,25.30
2023-07-08T07:42:47.154Z,25.40
2023-07-08T07:45:14.975Z,25.80
2023-07-08T07:47:42.780Z,25.60
2023-07-08T07:50:11.169Z,25.50
2023-07-08T07:52:38.946Z,25.70
2023-07-08T07:55:06.764Z,25.80
2023-07-08T07:57:34.476Z,25.80
2023-07-08T08:00:02.076Z,26.10
2023-07-08T08:02:44.626Z,25.90
2023-07-08T08:05:12.297Z,26.00
2023-07-08T08:07:41.704Z,26.10
2023-07-08T08:10:09.870Z,26.50
2023-07-08T08:12:48.607Z,26.50
2023-07-08T08:15:22.870Z,26.30
2023-07-08T08:17:53.247Z,26.60
2023-07-08T08:20:22.999Z,26.50
2023-07-08T08:22:51.736Z,26.80
2023-07-08T08:25:21.374Z,26.70
2023-07-08T08:27:49.238Z,26.30
2023-07-08T08:30:17.068Z,26.60
2023-07-08T08:32:44.791Z,26.60
2023-07-08T08:35:12.438Z,26.60
2023-07-08T08:37:40.126Z,26.50
2023-07-08T08:40:11.152Z,26.00
2023-07-08T08:42:47.677Z,26.30
2023-07-08T08:45:19.924Z,26.30
2023-07-08T08:47:52.880Z,26.80
2023-07-08T08:50:26.922Z,27.10
2023-07-08T08:52:56.328Z,27.20
2023-07-08T08:55:25.580Z,26.50
2023-07-08T08:58:18.472Z,26.50
2023-07-08T09:00:56.959Z,26.40
2023-07-08T09:03:38.987Z,26.70
2023-07-08T09:06:22.657Z,26.30
2023-07-08T09:08:52.154Z,27.10
2023-07-08T09:11:41.817Z,27.00
2023-07-08T09:14:21.041Z,26.80
2023-07-08T09:17:12.948Z,27.00
2023-07-08T09:19:49.505Z,27.50
2023-07-08T09:22:22.762Z,27.20
2023-07-08T09:25:12.964Z,26.70
2023-07-08T09:27:40.589Z,26.80
2023-07-08T09:30:16.799Z,26.40
2023-07-08T09:32:44.564Z,26.80
2023-07-08T09:35:29.021Z,27.00
2023-07-08T09:37:56.896Z,27.20
2023-07-08T09:40:34.602Z,27.80
2023-07-08T09:43:24.757Z,27.90
2023-07-08T09:45:52.475Z,27.80
2023-07-08T09:48:27.971Z,27.60
2023-07-08T09:50:58.675Z,27.60
2023-07-08T09:53:28.188Z,27.20
2023-07-08T09:55:59.869Z,27.20
2023-07-08T09:58:34.013Z,27.90
2023-07-08T10:01:14.422Z,28.10
2023-07-08T10:03:43.330Z,28.00
2023-07-08T10:06:28.950Z,27.40
2023-07-08T10:09:01.149Z,27.20
2023-07-08T10:11:28.785Z,26.80
2023-07-08T10:14:13.996Z,27.30
2023-07-08T10:16:43.486Z,27.30
2023-07-08T10:19:15.467Z,27.60
2023-07-08T10:22:05.005Z,27.70
2023-07-08T10:24:51.382Z,27.60
2023-07-08T10:27:37.445Z,28.30
2023-07-08T10:30:07.984Z,28.00
2023-07-08T10:32:54.221Z,28.30
2023-07-08T10:35:30.382Z,28.60
2023-07-08T10:38:10.304Z,27.80
2023-07-08T10:40:46.723Z,27.30
2023-07-08T10:43:19.737Z,27.30
2023-07-08T10:45:47.648Z,27.30
2023-07-08T10:49:03.248Z,27.70
2023-07-08T10:51:55.375Z,28.50
2023-07-08T10:54:47.473Z,28.50
2023-07-08T10:57:35.509Z,27.90
2023-07-08T11:00:22.224Z,27.40
2023-07-08T11:03:10.996Z,26.80
2023-07-08T11:05:44.644Z,26.60
2023-07-08T11:08:27.556Z,27.00
2023-07-08T11:11:15.395Z,27.40
2023-07-08T11:13:58.775Z,27.50
2023-07-08T11:16:42.457Z,27.40
2023-07-08T11:19:20.582Z,27.90
2023-07-08T11:21:52.221Z,28.40
2023-07-08T11:24:44.635Z,27.80
2023-07-08T11:27:29.305Z,27.80
2023-07-08T11:30:14.323Z,28.50
2023-07-08T11:32:45.415Z,28.20
2023-07-08T11:35:38.072Z,28.90
2023-07-08T11:38:06.766Z,29.30
2023-07-08T11:40:50.617Z,28.20
2023-07-08T11:43:19.811Z,28.20
2023-07-08T11:45:49.962Z,27.50
2023-07-08T11:48:23.145Z,26.80
2023-07-08T11:50:52.930Z,26.90
2023-07-08T11:53:37.034Z,27.40
2023-07-08T11:56:16.894Z,27.50
2023-07-08T11:58:50.600Z,27.30
2023-07-08T12:01:18.292Z,27.30
2023-07-08T12:03:52.017Z,27.10
2023-07-08T12:06:29.215Z,27.40
2023-07-08T12:09:13.471Z,27.30
2023-07-08T12:11:45.870Z,27.60
2023-07-08T12:14:15.817Z,27.70
2023-07-08T12:16:44.993Z,27.50
2023-07-08T12:19:17.324Z,27.60
2023-07-08T12:21:44.952Z,27.60
2023-07-08T12:24:15.264Z,27.50
2023-07-08T12:26:43.447Z,27.50
2023-07-08T12:29:17.417Z,27.30
2023-07-08T12:31:45.465Z,27.00
2023-07-08T12:34:17.976Z,27.30
2023-07-08T12:36:47.606Z,27.60
2023-07-08T12:39:17.863Z,27.60
2023-07-08T12:41:47.514Z,27.80
2023-07-08T12:44:23.139Z,27.80
2023-07-08T12:46:54.917Z,27.90
2023-07-08T12:49:27.983Z,27.90
2023-07-08T12:51:55.723Z,28.00
2023-07-08T12:54:23.530Z,28.00
2023-07-08T12:56:52.829Z,27.70
2023-07-08T12:59:24.096Z,27.50
2023-07-08T13:01:53.462Z,27.50
2023-07-08T13:04:21.636Z,27.50
2023-07-08T13:06:50.295Z,28.00
2023-07-08T13:09:46.030Z,29.10
2023-07-08T13:12:24.153Z,28.60
2023-07-08T13:14:56.852Z,28.20
2023-07-08T13:17:25.185Z,27.90
2023-07-08T13:19:53.199Z,28.30
2023-07-08T13:22:23.088Z,28.30
2023-07-08T13:25:00.657Z,27.60
2023-07-08T13:27:28.965Z,27.80
2023-07-08T13:30:16.547Z,27.70
2023-07-08T13:32:44.715Z,28.10
2023-07-08T13:35:37.260Z,28.10
2023-07-08T13:38:05.117Z,27.90
2023-07-08T13:40:33.861Z,27.90
2023-07-08T13:43:01.887Z,28.00
2023-07-08T13:45:33.440Z,27.90
2023-07-08T13:48:02.210Z,28.00
2023-07-08T13:50:37.190Z,28.00
2023-07-08T13:53:15.813Z,27.90
2023-07-08T13:55:44.075Z,27.90
2023-07-08T13:58:16.823Z,28.00
2023-07-08T14:00:44.964Z,28.00
2023-07-08T14:03:16.335Z,27.90
2023-07-08T14:05:44.931Z,27.80
2023-07-08T14:08:17.732Z,28.20
2023-07-08T14:10:45.708Z,27.90
2023-07-08T14:13:13.661Z,27.90
2023-07-08T14:15:41.420Z,28.40
2023-07-08T14:18:12.182Z,28.00
2023-07-08T14:20:40.242Z,28.00
2023-07-08T14:23:09.954Z,27.90
2023-07-08T14:25:37.547Z,28.00
2023-07-08T14:28:07.130Z,27.90
2023-07-08T14:30:37.296Z,28.00
2023-07-08T14:33:07.179Z,28.10
2023-07-08T14:35:35.781Z,27.60
2023-07-08T14:38:03.474Z,27.70
2023-07-08T14:40:38.118Z,28.30
2023-07-08T14:43:17.696Z,27.90
2023-07-08T14:45:50.346Z,28.10
2023-07-08T14:48:18.273Z,27.90
2023-07-08T14:50:46.458Z,27.70
2023-07-08T14:53:19.949Z,27.90
2023-07-08T14:55:50.712Z,27.80
2023-07-08T14:58:33.898Z,28.00
2023-07-08T15:01:12.975Z,28.00
2023-07-08T15:03:40.891Z,27.70
2023-07-08T15:06:12.669Z,27.50
2023-07-08T15:08:40.345Z,27.50
2023-07-08T15:11:12.068Z,27.60
2023-07-08T15:13:40.960Z,27.80
2023-07-08T15:16:15.556Z,27.80
2023-07-08T15:18:44.395Z,27.80
2023-07-08T15:21:16.446Z,27.70
2023-07-08T15:23:44.347Z,27.70
2023-07-08T15:26:13.443Z,27.70
2023-07-08T15:28:50.518Z,27.50
2023-07-08T15:31:32.936Z,27.60
2023-07-08T15:34:00.773Z,27.50
2023-07-08T15:36:28.926Z,27.60
2023-07-08T15:38:56.758Z,27.50
2023-07-08T15:41:27.072Z,27.30
2023-07-08T15:43:56.195Z,27.70
2023-07-08T15:46:32.174Z,27.80
2023-07-08T15:48:59.911Z,27.70
2023-07-08T15:51:27.616Z,27.60
2023-07-08T15:53:55.332Z,27.40
2023-07-08T15:56:24.060Z,27.40
2023-07-08T15:58:51.784Z,27.40
2023-07-08T16:01:26.109Z,27.30
2023-07-08T16:03:54.308Z,27.30
2023-07-08T16:06:22.054Z,27.40
2023-07-08T16:08:49.705Z,27.30
2023-07-08T16:11:24.860Z,27.10
2023-07-08T16:13:52.524Z,27.00
2023-07-08T16:16:20.598Z,26.90
2023-07-08T16:18:48.408Z,27.00
2023-07-08T16:21:17.109Z,27.10
2023-07-08T16:23:44.782Z,27.10
2023-07-08T16:26:16.180Z,27.10
2023-07-08T16:28:47.075Z,26.80
2023-07-08T16:31:20.394Z,26.60
2023-07-08T16:33:49.829Z,26.50
2023-07-08T16:36:21.051Z,26.10
2023-07-08T16:38:49.746Z,25.70
2023-07-08T16:41:20.262Z,25.60
2023-07-08T16:43:48.225Z,25.20
2023-07-08T16:46:19.528Z,25.10
2023-07-08T16:48:47.413Z,24.80
2023-07-08T16:51:22.483Z,24.90
2023-07-08T16:53:50.649Z,24.80
2023-07-08T16:56:20.267Z,24.70
2023-07-08T16:58:47.945Z,24.50
2023-07-08T17:01:25.098Z,24.40
2023-07-08T17:03:54.848Z,24.30
2023-07-08T17:06:23.424Z,24.50
2023-07-08T17:08:51.275Z,24.30
2023-07-08T17:11:19.225Z,24.20
2023-07-08T17:13:47.003Z,23.90
2023-07-08T17:16:18.384Z,23.90
2023-07-08T17:18:48.735Z,23.60
2023-07-08T17:21:17.292Z,23.50
2023-07-08T17:23:44.960Z,23.50
2023-07-08T17:26:12.581Z,23.50
2023-07-08T17:28:40.210Z,23.90
2023-07-08T17:31:14.861Z,23.90
2023-07-08T17:33:43.224Z,23.70
2023-07-08T17:36:12.682Z,23.50
2023-07-08T17:38:48.569Z,23.40
2023-07-08T17:41:20.841Z,23.30
2023-07-08T17:43:48.758Z,23.20
2023-07-08T17:46:20.538Z,23.10
2023-07-08T17:48:49.274Z,22.80
2023-07-08T17:51:25.378Z,22.60
2023-07-08T17:53:53.647Z,22.70
2023-07-08T17:56:49.305Z,22.60
2023-07-08T17:59:20.683Z,22.60
2023-07-08T18:01:48.860Z,22.50
2023-07-08T18:04:16.601Z,22.30
2023-07-08T18:06:44.216Z,22.10
2023-07-08T18:09:12.350Z,22.20
2023-07-08T18:11:48.714Z,22.00
2023-07-08T18:14:16.930Z,21.90
2023-07-08T18:16:45.819Z,22.00
2023-07-08T18:19:13.675Z,21.80
2023-07-08T18:21:41.432Z,21.70
2023-07-08T18:24:13.167Z,21.70
2023-07-08T18:26:41.036Z,21.60
2023-07-08T18:29:12.118Z,21.60
2023-07-08T18:31:42.517Z,21.30
2023-07-08T18:34:10.563Z,21.30
2023-07-08T18:36:38.397Z,21.40
2023-07-08T18:39:06.098Z,21.30
2023-07-08T18:41:45.104Z,21.10
2023-07-08T18:44:24.738Z,21.10
2023-07-08T18:46:52.500Z,21.20
2023-07-08T18:49:20.642Z,21.30
2023-07-08T18:51:48.370Z,21.10
2023-07-08T18:54:18.319Z,21.10
2023-07-08T18:56:46.664Z,20.90
2023-07-08T18:59:14.446Z,21.00
2023-07-08T19:01:46.990Z,21.00
2023-07-08T19:04:25.549Z,21.00
2023-07-08T19:06:55.186Z,21.00
2023-07-08T19:09:23.168Z,21.10
2023-07-08T19:11:51.485Z,20.90
2023-07-08T19:14:19.344Z,20.80
2023-07-08T19:16:47.121Z,20.80
2023-07-08T19:19:15.194Z,20.90
2023-07-08T19:21:43.279Z,21.00
2023-07-08T19:24:24.079Z,20.90
2023-07-08T19:27:00.188Z,20.90
2023-07-08T19:29:27.773Z,21.00
2023-07-08T19:31:55.469Z,20.80
2023-07-08T19:34:23.027Z,20.60
2023-07-08T19:36:50.697Z,20.40
2023-07-08T19:39:18.390Z,20.50
2023-07-08T19:41:46.059Z,20.50
2023-07-08T19:44:23.715Z,20.40
2023-07-08T19:46:51.364Z,20.40
2023-07-08T19:49:19.045Z,20.40
2023-07-08T19:51:46.838Z,20.40
2023-07-08T19:54:14.426Z,20.30
2023-07-08T19:56:42.100Z,20.40
2023-07-08T19:59:15.165Z,20.30
2023-07-08T20:01:42.802Z,20.40
2023-07-08T20:04:17.198Z,20.40
2023-07-08T20:06:45.826Z,20.20
2023-07-08T20:09:16.047Z,20.10
2023-07-08T20:11:44.624Z,20.10
2023-07-08T20:14:12.751Z,20.20
2023-07-08T20:16:42.669Z,20.00
2023-07-08T20:19:19.989Z,19.70
2023-07-08T20:21:48.134Z,19.60
2023-07-08T20:24:15.760Z,19.50
2023-07-08T20:26:44.536Z,19.40
2023-07-08T20:29:21.468Z,19.30
2023-07-08T20:31:49.270Z,19.30
2023-07-08T20:34:19.224Z,19.20
2023-07-08T20:36:47.676Z,19.10
2023-07-08T20:39:20.258Z,19.10
2023-07-08T20:41:47.941Z,19.20
2023-07-08T20:44:15.614Z,19.20
2023-07-08T20:46:46.022Z,19.10
2023-07-08T20:49:14.093Z,19.20
2023-07-08T20:51:41.820Z,19.10
2023-07-08T20:54:13.705Z,19.00
2023-07-08T20:56:42.130Z,19.10
2023-07-08T20:59:17.048Z,19.00
2023-07-08T21:01:44.696Z,19.00
2023-07-08T21:04:12.494Z,18.90
2023-07-08T21:06:40.142Z,18.90
2023-07-08T21:09:15.152Z,18.90
2023-07-08T21:11:43.220Z,18.90
2023-07-08T21:14:11.119Z,18.70
2023-07-08T21:16:39.021Z,18.70
2023-07-08T21:19:09.037Z,18.90
2023-07-08T21:21:36.661Z,18.80
2023-07-08T21:24:04.814Z,18.70
2023-07-08T21:26:32.841Z,18.60
2023-07-08T21:29:02.161Z,18.40
2023-07-08T21:31:30.869Z,18.40
2023-07-08T21:33:58.785Z,18.40
2023-07-08T21:36:35.104Z,18.60
2023-07-08T21:39:19.818Z,18.50
2023-07-08T21:41:47.483Z,18.40
2023-07-08T21:44:18.361Z,18.40
2023-07-08T21:46:46.066Z,18.40
2023-07-08T21:49:13.835Z,18.40
2023-07-08T21:51:41.963Z,18.50
2023-07-08T21:54:11.795Z,18.60
2023-07-08T21:56:39.883Z,18.50
2023-07-08T21:59:18.979Z,18.70
2023-07-08T22:01:46.961Z,18.90
2023-07-08T22:04:15.917Z,18.70
2023-07-08T22:06:43.751Z,18.70
2023-07-08T22:09:11.716Z,18.70
2023-07-08T22:11:39.884Z,18.80
2023-07-08T22:14:10.618Z,18.70
2023-07-08T22:16:38.402Z,18.60
2023-07-08T22:19:06.433Z,18.50
2023-07-08T22:21:37.045Z,18.40
2023-07-08T22:24:07.733Z,18.40
2023-07-08T22:26:42.034Z,18.20
2023-07-08T22:29:10.757Z,18.10
2023-07-08T22:31:42.075Z,18.20
2023-07-08T22:34:18.907Z,18.10
2023-07-08T22:36:47.830Z,18.10
2023-07-08T22:39:15.464Z,18.10
2023-07-08T22:41:47.232Z,17.90
2023-07-08T22:44:17.828Z,17.90
2023-07-08T22:46:46.756Z,17.90
2023-07-08T22:49:24.425Z,17.90
2023-07-08T22:51:56.161Z,17.80
2023-07-08T22:54:24.671Z,17.70
2023-07-08T22:56:52.357Z,17.90
2023-07-08T22:59:20.088Z,17.90
2023-07-08T23:01:47.751Z,17.80
2023-07-08T23:04:15.448Z,17.80
2023-07-08T23:06:44.460Z,17.90
2023-07-08T23:09:18.346Z,17.80
2023-07-08T23:11:46.006Z,17.90
2023-07-08T23:14:13.705Z,17.90
2023-07-08T23:16:41.647Z,17.90
2023-07-08T23:19:12.890Z,17.90
2023-07-08T23:21:41.862Z,17.90
2023-07-08T23:24:09.749Z,17.90
2023-07-08T23:26:40.444Z,17.80
2023-07-08T23:29:20.088Z,17.80
2023-07-08T23:31:49.450Z,17.80
2023-07-08T23:34:17.958Z,17.80
2023-07-08T23:36:50.239Z,17.70
2023-07-08T23:39:24.223Z,17.80
2023-07-08T23:41:52.194Z,17.90
2023-07-08T23:44:21.746Z,17.90
2023-07-08T23:46:56.458Z,17.80
2023-07-08T23:49:26.621Z,17.80
2023-07-08T23:51:55.140Z,17.70
2023-07-08T23:54:25.110Z,17.90
2023-07-08T23:57:14.192Z,17.90
